»·PEaware :: SWA3931 KPHX-KSAN

SWA3931 :: KPHX-KSAN

FLIGHT INFORMATION

Flight Status: Arrived
Operator:
Southwest Airlines
More flights by this operator :: More flights under this callsign
Pilot: Ben F. (2808)
Aircraft: BOEING 737-800
(B738)
More flights by this aircraft type
Origin: KPHX Phoenix Sky Harbor Intl
United States
Destination: KSAN San Diego Intl-Lindbergh
United States
More flights between these airports :: More routes between these airports
Route: FYRBD1 MOHAK J2 HOGGZ LUCKI1
File this flight plan on PilotEdge
Remarks:
Altitude:
(Current/Filed)
32,000ft
Speed:
(Current/Filed)
453kts
Departed: 02-Feb-20 09:00 AM
Arrived: 02-Feb-20 09:48 AM
Distance/Time
Traveled:
264nm/0:48
Distance/Time
To Go:
Arrived

Flight Plot

Page will automatically refresh every two minutes.

Flight plan parsing failed; only flown route is shown


Map Options




Map Legend


Flown Route
Filed Route
Departure Airport
Arrival Airport
Navaid (VOR, NDB)
Fix

Horizontal Profiles

Position Reports

Time Latitude Longitude Heading Altitude Ground
Speed
02-Feb-20 08:39 33.434294 -111.999919 94 1143ft 0kts
02-Feb-20 08:40 33.434294 -111.999919 94 1143ft 0kts
02-Feb-20 08:41 33.434294 -111.999919 94 1143ft 0kts
02-Feb-20 08:42 33.434294 -111.999919 94 1143ft 0kts
02-Feb-20 08:43 33.434294 -111.999919 94 1143ft 0kts
02-Feb-20 08:44 33.434294 -111.999919 94 1143ft 0kts
02-Feb-20 08:45 33.434294 -111.999919 94 1143ft 0kts
02-Feb-20 08:46 33.434294 -111.999919 94 1143ft 0kts
02-Feb-20 08:47 33.434294 -111.999919 94 1143ft 0kts
02-Feb-20 08:48 33.434394 -111.999799 154 1143ft 0kts
02-Feb-20 08:49 33.434394 -111.999799 154 1143ft 0kts
02-Feb-20 08:50 33.434393 -111.999798 154 1143ft 0kts
02-Feb-20 08:50 33.433859 -112.000455 197 1143ft 6kts
02-Feb-20 08:52 33.433502 -112.000501 180 1143ft 0kts
02-Feb-20 08:53 33.433197 -112.000511 187 1143ft 7kts
02-Feb-20 08:53 33.432832 -112.007632 270 1143ft 30kts
02-Feb-20 08:55 33.432836 -112.017778 270 1143ft 22kts
02-Feb-20 08:56 33.432825 -112.025572 270 1143ft 22kts
02-Feb-20 08:56 33.431917 -112.026991 177 1143ft 0kts
02-Feb-20 08:58 33.431915 -112.026991 177 1143ft 0kts
02-Feb-20 08:58 33.431153 -112.026762 126 1143ft 11kts
02-Feb-20 08:59 33.431228 -111.992983 90 1820ft 169kts
02-Feb-20 09:00 33.433269 -111.927846 88 4135ft 235kts
02-Feb-20 09:01 33.413955 -111.855967 141 7696ft 243kts
02-Feb-20 09:02 33.351887 -111.873941 240 10361ft 286kts
02-Feb-20 09:03 33.356359 -111.972861 279 12811ft 337kts
02-Feb-20 09:04 33.324605 -112.081565 233 14908ft 370kts
02-Feb-20 09:05 33.261179 -112.181978 232 17521ft 386kts
02-Feb-20 09:06 33.196230 -112.286667 233 19938ft 400kts
02-Feb-20 09:07 33.129452 -112.395485 233 22118ft 413kts
02-Feb-20 09:08 33.060402 -112.507129 233 24075ft 424kts
02-Feb-20 09:09 32.988818 -112.622034 233 25793ft 436kts
02-Feb-20 09:10 32.944992 -112.756939 259 27308ft 446kts
02-Feb-20 09:11 32.925085 -112.904056 261 28738ft 454kts
02-Feb-20 09:12 32.904845 -113.051555 261 30598ft 448kts
02-Feb-20 09:13 32.885192 -113.197575 260 32058ft 448kts
02-Feb-20 09:14 32.865195 -113.343787 261 32103ft 446kts
02-Feb-20 09:15 32.844829 -113.489403 260 32096ft 447kts
02-Feb-20 09:16 32.824015 -113.635627 260 32090ft 449kts
02-Feb-20 09:17 32.803252 -113.782415 260 32085ft 449kts
02-Feb-20 09:18 32.782131 -113.928635 260 32082ft 449kts
02-Feb-20 09:19 32.774882 -114.076614 270 32080ft 450kts
02-Feb-20 09:20 32.781232 -114.225190 273 32079ft 449kts
02-Feb-20 09:21 32.788877 -114.373436 279 32079ft 449kts
02-Feb-20 09:22 32.823235 -114.515785 288 32078ft 447kts
02-Feb-20 09:23 32.861724 -114.656275 288 32075ft 447kts
02-Feb-20 09:24 32.877916 -114.802759 269 32072ft 449kts
02-Feb-20 09:25 32.874159 -114.950973 269 32074ft 449kts
02-Feb-20 09:26 32.871137 -115.098690 268 30482ft 440kts
02-Feb-20 09:27 32.867444 -115.241868 268 28386ft 425kts
02-Feb-20 09:28 32.860041 -115.380067 260 26334ft 413kts
02-Feb-20 09:29 32.840691 -115.512402 260 24314ft 400kts
02-Feb-20 09:30 32.819621 -115.640364 259 22333ft 389kts
02-Feb-20 09:31 32.799023 -115.764589 259 20396ft 377kts
02-Feb-20 09:32 32.781279 -115.885160 264 18664ft 366kts
02-Feb-20 09:33 32.773696 -116.004030 264 16854ft 355kts
02-Feb-20 09:34 32.764944 -116.119645 264 15288ft 348kts
02-Feb-20 09:35 32.756163 -116.232755 264 13728ft 340kts
02-Feb-20 09:36 32.747713 -116.343084 264 11799ft 330kts
02-Feb-20 09:37 32.739290 -116.450135 264 10416ft 317kts
02-Feb-20 09:38 32.730463 -116.551961 263 9991ft 303kts
02-Feb-20 09:39 32.721067 -116.648006 262 8764ft 284kts
02-Feb-20 09:40 32.713616 -116.740693 264 7258ft 278kts
02-Feb-20 09:41 32.703994 -116.830503 253 5758ft 270kts
02-Feb-20 09:42 32.678909 -116.909195 250 4797ft 238kts
02-Feb-20 09:43 32.682424 -116.984185 289 3537ft 227kts
02-Feb-20 09:44 32.700740 -117.054378 285 2567ft 208kts
02-Feb-20 09:45 32.715372 -117.114655 285 1383ft 174kts
02-Feb-20 09:46 32.727813 -117.166010 285 340ft 152kts
02-Feb-20 09:47 32.735028 -117.198422 222 23ft 7kts
02-Feb-20 09:48 32.734047 -117.195957 106 23ft 17kts
02-Feb-20 09:49 32.732415 -117.194788 224 23ft 4kts
02-Feb-20 09:50 32.732502 -117.195458 310 23ft 0kts
02-Feb-20 09:51 32.732502 -117.195458 310 23ft 0kts
02-Feb-20 09:52 32.732502 -117.195458 310 23ft 0kts
02-Feb-20 09:53 32.732502 -117.195458 310 23ft 0kts

Navigation Log

Ident Type
Flight plan parsing failed, navigation log unavailable